sensor_id;sensor_type;location;lat;lon;timestamp;temperature;humidity
23669;DHT22;12011;47.422;15.018;2023-07-29T00:01:16;15.70;99.90
23669;DHT22;12011;47.422;15.018;2023-07-29T00:03:46;15.60;99.90
23669;DHT22;12011;47.422;15.018;2023-07-29T00:06:16;15.40;99.90
23669;DHT22;12011;47.422;15.018;2023-07-29T00:08:45;15.40;99.90
23669;DHT22;12011;47.422;15.018;2023-07-29T00:11:17;15.40;99.90
23669;DHT22;12011;47.422;15.018;2023-07-29T00:13:47;15.30;99.90
23669;DHT22;12011;47.422;15.018;2023-07-29T00:16:16;15.40;99.90
23669;DHT22;12011;47.422;15.018;2023-07-29T00:18:48;15.30;99.90
23669;DHT22;12011;47.422;15.018;2023-07-29T00:21:17;15.20;99.90
23669;DHT22;12011;47.422;15.018;2023-07-29T00:23:47;15.20;99.90
23669;DHT22;12011;47.422;15.018;2023-07-29T00:26:19;15.20;99.90
23669;DHT22;12011;47.422;15.018;2023-07-29T00:28:48;15.20;99.90
23669;DHT22;12011;47.422;15.018;2023-07-29T00:31:18;15.30;99.90
23669;DHT22;12011;47.422;15.018;2023-07-29T00:33:47;15.30;99.90
23669;DHT22;12011;47.422;15.018;2023-07-29T00:36:19;15.40;99.90
23669;DHT22;12011;47.422;15.018;2023-07-29T00:38:48;15.30;99.90
23669;DHT22;12011;47.422;15.018;2023-07-29T00:41:23;15.20;99.90
23669;DHT22;12011;47.422;15.018;2023-07-29T00:43:53;15.30;99.90
23669;DHT22;12011;47.422;15.018;2023-07-29T00:46:24;15.30;99.90
23669;DHT22;12011;47.422;15.018;2023-07-29T00:48:54;15.30;99.90
23669;DHT22;12011;47.422;15.018;2023-07-29T00:51:24;15.40;99.90
23669;DHT22;12011;47.422;15.018;2023-07-29T00:53:56;15.30;99.90
23669;DHT22;12011;47.422;15.018;2023-07-29T00:56:28;15.30;99.90
23669;DHT22;12011;47.422;15.018;2023-07-29T00:58:58;15.30;99.90
23669;DHT22;12011;47.422;15.018;2023-07-29T01:01:29;15.20;99.90
23669;DHT22;12011;47.422;15.018;2023-07-29T01:03:59;15.20;99.90
23669;DHT22;12011;47.422;15.018;2023-07-29T01:12:46;14.90;99.90
23669;DHT22;12011;47.422;15.018;2023-07-29T01:15:26;15.00;99.90
23669;DHT22;12011;47.422;15.018;2023-07-29T01:18:04;15.00;99.90
23669;DHT22;12011;47.422;15.018;2023-07-29T01:20:40;15.00;99.90
23669;DHT22;12011;47.422;15.018;2023-07-29T01:23:12;15.00;99.90
23669;DHT22;12011;47.422;15.018;2023-07-29T01:25:44;15.00;99.90
23669;DHT22;12011;47.422;15.018;2023-07-29T01:28:13;14.90;99.90
23669;DHT22;12011;47.422;15.018;2023-07-29T01:30:44;15.00;99.90
23669;DHT22;12011;47.422;15.018;2023-07-29T01:33:18;15.00;99.90
23669;DHT22;12011;47.422;15.018;2023-07-29T01:35:54;14.90;99.90
23669;DHT22;12011;47.422;15.018;2023-07-29T01:38:30;15.00;99.90
23669;DHT22;12011;47.422;15.018;2023-07-29T01:41:08;15.00;99.90
23669;DHT22;12011;47.422;15.018;2023-07-29T01:43:38;15.10;99.90
23669;DHT22;12011;47.422;15.018;2023-07-29T01:46:10;15.10;99.90
23669;DHT22;12011;47.422;15.018;2023-07-29T01:48:41;15.00;99.90
23669;DHT22;12011;47.422;15.018;2023-07-29T01:51:14;14.90;99.90
23669;DHT22;12011;47.422;15.018;2023-07-29T01:53:44;14.90;99.90
23669;DHT22;12011;47.422;15.018;2023-07-29T01:56:16;14.90;99.90
23669;DHT22;12011;47.422;15.018;2023-07-29T01:58:53;14.90;99.90
23669;DHT22;12011;47.422;15.018;2023-07-29T02:01:22;14.90;99.90
23669;DHT22;12011;47.422;15.018;2023-07-29T02:03:52;14.90;99.90
23669;DHT22;12011;47.422;15.018;2023-07-29T02:06:22;14.90;99.90
23669;DHT22;12011;47.422;15.018;2023-07-29T02:08:53;14.90;99.90
23669;DHT22;12011;47.422;15.018;2023-07-29T02:11:27;15.00;99.90
23669;DHT22;12011;47.422;15.018;2023-07-29T02:13:59;15.00;99.90
23669;DHT22;12011;47.422;15.018;2023-07-29T02:16:28;15.10;99.90
23669;DHT22;12011;47.422;15.018;2023-07-29T02:18:58;15.10;99.90
23669;DHT22;12011;47.422;15.018;2023-07-29T02:21:28;15.10;99.90
23669;DHT22;12011;47.422;15.018;2023-07-29T02:23:59;15.10;99.90
23669;DHT22;12011;47.422;15.018;2023-07-29T02:26:31;15.10;99.90
23669;DHT22;12011;47.422;15.018;2023-07-29T02:29:02;15.10;99.90
23669;DHT22;12011;47.422;15.018;2023-07-29T02:31:32;15.10;99.90
23669;DHT22;12011;47.422;15.018;2023-07-29T02:34:03;15.10;99.90
23669;DHT22;12011;47.422;15.018;2023-07-29T02:36:33;15.10;99.90
23669;DHT22;12011;47.422;15.018;2023-07-29T02:39:03;15.10;99.90
23669;DHT22;12011;47.422;15.018;2023-07-29T02:41:35;15.10;99.90
23669;DHT22;12011;47.422;15.018;2023-07-29T02:44:05;15.10;99.90
23669;DHT22;12011;47.422;15.018;2023-07-29T02:46:35;15.10;99.90
23669;DHT22;12011;47.422;15.018;2023-07-29T02:49:06;15.10;99.90
23669;DHT22;12011;47.422;15.018;2023-07-29T02:51:36;15.10;99.90
23669;DHT22;12011;47.422;15.018;2023-07-29T02:54:05;15.10;99.90
23669;DHT22;12011;47.422;15.018;2023-07-29T02:56:37;15.10;99.90
23669;DHT22;12011;47.422;15.018;2023-07-29T02:59:07;15.10;99.90
23669;DHT22;12011;47.422;15.018;2023-07-29T03:01:36;15.10;99.90
23669;DHT22;12011;47.422;15.018;2023-07-29T03:04:06;15.10;99.90
23669;DHT22;12011;47.422;15.018;2023-07-29T03:06:35;15.10;99.90
23669;DHT22;12011;47.422;15.018;2023-07-29T03:09:05;15.00;99.90
23669;DHT22;12011;47.422;15.018;2023-07-29T03:11:37;15.00;99.90
23669;DHT22;12011;47.422;15.018;2023-07-29T03:14:06;15.00;99.90
23669;DHT22;12011;47.422;15.018;2023-07-29T03:16:36;15.00;99.90
23669;DHT22;12011;47.422;15.018;2023-07-29T03:19:05;15.00;99.90
23669;DHT22;12011;47.422;15.018;2023-07-29T03:21:35;15.00;99.90
23669;DHT22;12011;47.422;15.018;2023-07-29T03:24:05;15.00;99.90
23669;DHT22;12011;47.422;15.018;2023-07-29T03:26:37;15.00;99.90
23669;DHT22;12011;47.422;15.018;2023-07-29T03:29:06;15.00;99.90
23669;DHT22;12011;47.422;15.018;2023-07-29T03:31:36;15.00;99.90
23669;DHT22;12011;47.422;15.018;2023-07-29T03:34:05;15.00;99.90
23669;DHT22;12011;47.422;15.018;2023-07-29T03:36:40;14.90;99.90
23669;DHT22;12011;47.422;15.018;2023-07-29T03:39:12;14.90;99.90
23669;DHT22;12011;47.422;15.018;2023-07-29T03:41:44;14.90;99.90
23669;DHT22;12011;47.422;15.018;2023-07-29T03:44:14;14.90;99.90
23669;DHT22;12011;47.422;15.018;2023-07-29T03:46:44;15.00;99.90
23669;DHT22;12011;47.422;15.018;2023-07-29T03:49:14;15.00;99.90
23669;DHT22;12011;47.422;15.018;2023-07-29T03:51:43;15.00;99.90
23669;DHT22;12011;47.422;15.018;2023-07-29T03:54:13;15.00;99.90
23669;DHT22;12011;47.422;15.018;2023-07-29T03:56:47;15.00;99.90
23669;DHT22;12011;47.422;15.018;2023-07-29T03:59:17;15.10;99.90
23669;DHT22;12011;47.422;15.018;2023-07-29T04:01:50;15.10;99.90
23669;DHT22;12011;47.422;15.018;2023-07-29T04:04:20;15.10;99.90
23669;DHT22;12011;47.422;15.018;2023-07-29T04:06:50;15.20;99.90
23669;DHT22;12011;47.422;15.018;2023-07-29T04:09:20;15.20;99.90
23669;DHT22;12011;47.422;15.018;2023-07-29T04:11:52;15.20;99.90
23669;DHT22;12011;47.422;15.018;2023-07-29T04:14:21;15.30;99.90
23669;DHT22;12011;47.422;15.018;2023-07-29T04:16:54;15.30;99.90
23669;DHT22;12011;47.422;15.018;2023-07-29T04:19:24;15.30;99.90
23669;DHT22;12011;47.422;15.018;2023-07-29T04:21:54;15.40;99.90
23669;DHT22;12011;47.422;15.018;2023-07-29T04:24:23;15.30;99.90
23669;DHT22;12011;47.422;15.018;2023-07-29T04:26:56;15.40;99.90
23669;DHT22;12011;47.422;15.018;2023-07-29T04:29:28;15.40;99.90
23669;DHT22;12011;47.422;15.018;2023-07-29T04:32:00;15.50;99.90
23669;DHT22;12011;47.422;15.018;2023-07-29T04:34:30;15.50;99.90
23669;DHT22;12011;47.422;15.018;2023-07-29T04:36:59;15.50;99.90
23669;DHT22;12011;47.422;15.018;2023-07-29T04:39:29;15.50;99.90
23669;DHT22;12011;47.422;15.018;2023-07-29T04:42:02;15.60;99.90
23669;DHT22;12011;47.422;15.018;2023-07-29T04:44:31;15.70;99.90
23669;DHT22;12011;47.422;15.018;2023-07-29T04:47:02;15.70;99.90
23669;DHT22;12011;47.422;15.018;2023-07-29T04:49:32;15.70;99.90
23669;DHT22;12011;47.422;15.018;2023-07-29T04:52:02;15.80;99.90
23669;DHT22;12011;47.422;15.018;2023-07-29T04:54:31;15.90;99.90
23669;DHT22;12011;47.422;15.018;2023-07-29T04:57:04;16.00;99.90
23669;DHT22;12011;47.422;15.018;2023-07-29T04:59:37;16.00;99.90
23669;DHT22;12011;47.422;15.018;2023-07-29T05:02:07;16.10;99.90
23669;DHT22;12011;47.422;15.018;2023-07-29T05:04:37;16.20;99.90
23669;DHT22;12011;47.422;15.018;2023-07-29T05:07:07;16.20;99.90
23669;DHT22;12011;47.422;15.018;2023-07-29T05:09:36;16.30;99.90
23669;DHT22;12011;47.422;15.018;2023-07-29T05:12:09;16.40;99.90
23669;DHT22;12011;47.422;15.018;2023-07-29T05:14:38;16.40;99.90
23669;DHT22;12011;47.422;15.018;2023-07-29T05:17:08;16.40;99.90
23669;DHT22;12011;47.422;15.018;2023-07-29T05:19:37;16.50;99.90
23669;DHT22;12011;47.422;15.018;2023-07-29T05:22:07;16.70;99.90
23669;DHT22;12011;47.422;15.018;2023-07-29T05:24:36;16.80;99.90
23669;DHT22;12011;47.422;15.018;2023-07-29T05:27:08;17.00;99.90
23669;DHT22;12011;47.422;15.018;2023-07-29T05:29:38;17.20;99.90
23669;DHT22;12011;47.422;15.018;2023-07-29T05:32:07;17.30;99.90
23669;DHT22;12011;47.422;15.018;2023-07-29T05:34:37;17.50;99.90
23669;DHT22;12011;47.422;15.018;2023-07-29T05:37:06;17.80;99.90
23669;DHT22;12011;47.422;15.018;2023-07-29T05:39:36;18.00;99.90
23669;DHT22;12011;47.422;15.018;2023-07-29T05:42:08;19.60;99.90
23669;DHT22;12011;47.422;15.018;2023-07-29T05:44:38;20.00;98.30
23669;DHT22;12011;47.422;15.018;2023-07-29T05:47:15;21.50;94.80
23669;DHT22;12011;47.422;15.018;2023-07-29T05:49:44;22.40;92.30
23669;DHT22;12011;47.422;15.018;2023-07-29T05:52:14;23.30;89.70
23669;DHT22;12011;47.422;15.018;2023-07-29T05:54:44;24.00;87.40
23669;DHT22;12011;47.422;15.018;2023-07-29T05:57:16;24.70;73.20
23669;DHT22;12011;47.422;15.018;2023-07-29T05:59:46;24.80;68.90
23669;DHT22;12011;47.422;15.018;2023-07-29T06:02:15;25.30;73.00
23669;DHT22;12011;47.422;15.018;2023-07-29T06:04:45;25.40;65.60
23669;DHT22;12011;47.422;15.018;2023-07-29T06:07:15;25.70;60.70
23669;DHT22;12011;47.422;15.018;2023-07-29T06:09:46;26.20;61.30
23669;DHT22;12011;47.422;15.018;2023-07-29T06:12:18;26.60;59.00
23669;DHT22;12011;47.422;15.018;2023-07-29T06:14:48;27.00;60.20
23669;DHT22;12011;47.422;15.018;2023-07-29T06:17:17;26.80;58.60
23669;DHT22;12011;47.422;15.018;2023-07-29T06:19:49;26.30;58.80
23669;DHT22;12011;47.422;15.018;2023-07-29T06:22:19;26.60;59.70
23669;DHT22;12011;47.422;15.018;2023-07-29T06:24:49;26.70;55.30
23669;DHT22;12011;47.422;15.018;2023-07-29T06:27:23;27.10;54.10
23669;DHT22;12011;47.422;15.018;2023-07-29T06:29:54;26.60;54.90
23669;DHT22;12011;47.422;15.018;2023-07-29T06:32:27;26.80;56.20
23669;DHT22;12011;47.422;15.018;2023-07-29T06:34:56;26.60;55.50
23669;DHT22;12011;47.422;15.018;2023-07-29T06:37:27;26.80;53.30
23669;DHT22;12011;47.422;15.018;2023-07-29T06:39:57;27.60;53.30
23669;DHT22;12011;47.422;15.018;2023-07-29T06:42:30;28.30;55.30
23669;DHT22;12011;47.422;15.018;2023-07-29T06:44:59;28.10;50.80
23669;DHT22;12011;47.422;15.018;2023-07-29T06:47:29;28.20;50.90
23669;DHT22;12011;47.422;15.018;2023-07-29T06:49:58;28.40;49.50
23669;DHT22;12011;47.422;15.018;2023-07-29T06:52:28;28.60;52.10
23669;DHT22;12011;47.422;15.018;2023-07-29T06:54:58;28.80;50.80
23669;DHT22;12011;47.422;15.018;2023-07-29T06:57:30;27.70;51.00
23669;DHT22;12011;47.422;15.018;2023-07-29T07:00:00;28.40;51.50
23669;DHT22;12011;47.422;15.018;2023-07-29T07:02:31;28.80;49.70
23669;DHT22;12011;47.422;15.018;2023-07-29T07:05:00;29.50;50.60
23669;DHT22;12011;47.422;15.018;2023-07-29T07:07:30;30.10;50.00
23669;DHT22;12011;47.422;15.018;2023-07-29T07:09:59;30.40;49.40
23669;DHT22;12011;47.422;15.018;2023-07-29T07:12:32;30.40;44.40
23669;DHT22;12011;47.422;15.018;2023-07-29T07:15:01;30.90;47.10
23669;DHT22;12011;47.422;15.018;2023-07-29T07:17:31;31.40;45.50
23669;DHT22;12011;47.422;15.018;2023-07-29T07:20:00;31.50;46.50
23669;DHT22;12011;47.422;15.018;2023-07-29T07:22:30;31.10;44.80
23669;DHT22;12011;47.422;15.018;2023-07-29T07:25:00;31.10;45.60
23669;DHT22;12011;47.422;15.018;2023-07-29T07:27:32;29.90;45.10
23669;DHT22;12011;47.422;15.018;2023-07-29T07:30:03;30.20;47.70
23669;DHT22;12011;47.422;15.018;2023-07-29T07:32:33;29.60;45.60
23669;DHT22;12011;47.422;15.018;2023-07-29T07:35:04;29.10;47.90
23669;DHT22;12011;47.422;15.018;2023-07-29T07:37:34;29.20;47.60
23669;DHT22;12011;47.422;15.018;2023-07-29T07:40:05;29.20;46.60
23669;DHT22;12011;47.422;15.018;2023-07-29T07:42:38;29.60;47.60
23669;DHT22;12011;47.422;15.018;2023-07-29T07:45:07;29.40;50.10
23669;DHT22;12011;47.422;15.018;2023-07-29T07:47:40;30.20;46.20
23669;DHT22;12011;47.422;15.018;2023-07-29T07:50:10;30.70;45.00
23669;DHT22;12011;47.422;15.018;2023-07-29T07:52:45;30.30;45.70
23669;DHT22;12011;47.422;15.018;2023-07-29T07:55:15;30.70;45.70
23669;DHT22;12011;47.422;15.018;2023-07-29T07:57:47;31.70;46.10
23669;DHT22;12011;47.422;15.018;2023-07-29T08:00:17;31.70;41.90
23669;DHT22;12011;47.422;15.018;2023-07-29T08:02:47;32.30;42.80
23669;DHT22;12011;47.422;15.018;2023-07-29T08:05:19;31.50;42.60
23669;DHT22;12011;47.422;15.018;2023-07-29T08:07:48;31.80;41.60
23669;DHT22;12011;47.422;15.018;2023-07-29T08:10:18;32.10;45.50
23669;DHT22;12011;47.422;15.018;2023-07-29T08:12:50;33.10;44.50
23669;DHT22;12011;47.422;15.018;2023-07-29T08:15:20;33.60;42.60
23669;DHT22;12011;47.422;15.018;2023-07-29T08:17:50;33.30;41.00
23669;DHT22;12011;47.422;15.018;2023-07-29T08:20:19;32.70;41.60
23669;DHT22;12011;47.422;15.018;2023-07-29T08:22:50;31.50;40.30
23669;DHT22;12011;47.422;15.018;2023-07-29T08:25:20;31.60;45.80
23669;DHT22;12011;47.422;15.018;2023-07-29T08:27:52;31.60;42.60
23669;DHT22;12011;47.422;15.018;2023-07-29T08:30:21;31.80;44.90
23669;DHT22;12011;47.422;15.018;2023-07-29T08:32:53;32.50;40.10
23669;DHT22;12011;47.422;15.018;2023-07-29T08:35:26;32.60;40.40
23669;DHT22;12011;47.422;15.018;2023-07-29T08:38:03;32.60;40.90
23669;DHT22;12011;47.422;15.018;2023-07-29T08:40:40;32.90;42.90
23669;DHT22;12011;47.422;15.018;2023-07-29T08:43:18;32.10;44.10
23669;DHT22;12011;47.422;15.018;2023-07-29T08:45:51;32.80;44.10
23669;DHT22;12011;47.422;15.018;2023-07-29T08:48:31;32.40;42.10
23669;DHT22;12011;47.422;15.018;2023-07-29T08:51:09;32.10;42.50
23669;DHT22;12011;47.422;15.018;2023-07-29T08:53:40;31.70;43.10
23669;DHT22;12011;47.422;15.018;2023-07-29T08:56:12;31.10;45.30
23669;DHT22;12011;47.422;15.018;2023-07-29T08:58:45;31.00;45.50
23669;DHT22;12011;47.422;15.018;2023-07-29T09:01:15;30.90;42.10
23669;DHT22;12011;47.422;15.018;2023-07-29T09:03:45;31.70;41.40
23669;DHT22;12011;47.422;15.018;2023-07-29T09:06:15;32.10;41.40
23669;DHT22;12011;47.422;15.018;2023-07-29T09:08:45;32.80;44.00
23669;DHT22;12011;47.422;15.018;2023-07-29T09:11:16;33.30;39.20
23669;DHT22;12011;47.422;15.018;2023-07-29T09:13:49;33.40;41.90
23669;DHT22;12011;47.422;15.018;2023-07-29T09:16:20;34.00;42.70
23669;DHT22;12011;47.422;15.018;2023-07-29T09:18:51;34.50;40.00
23669;DHT22;12011;47.422;15.018;2023-07-29T09:21:27;33.90;36.50
23669;DHT22;12011;47.422;15.018;2023-07-29T09:23:57;34.00;38.80
23669;DHT22;12011;47.422;15.018;2023-07-29T09:26:34;33.50;34.80
23669;DHT22;12011;47.422;15.018;2023-07-29T09:29:06;33.80;37.40
23669;DHT22;12011;47.422;15.018;2023-07-29T09:31:36;33.60;37.80
23669;DHT22;12011;47.422;15.018;2023-07-29T09:34:05;32.40;37.10
23669;DHT22;12011;47.422;15.018;2023-07-29T09:36:35;31.70;41.30
23669;DHT22;12011;47.422;15.018;2023-07-29T09:39:11;32.60;40.70
23669;DHT22;12011;47.422;15.018;2023-07-29T09:41:45;32.80;39.60
23669;DHT22;12011;47.422;15.018;2023-07-29T09:44:19;32.70;35.50
23669;DHT22;12011;47.422;15.018;2023-07-29T09:46:49;32.50;37.30
23669;DHT22;12011;47.422;15.018;2023-07-29T09:49:18;32.30;37.40
23669;DHT22;12011;47.422;15.018;2023-07-29T09:51:48;31.90;38.60
23669;DHT22;12011;47.422;15.018;2023-07-29T09:54:17;32.00;39.10
23669;DHT22;12011;47.422;15.018;2023-07-29T09:56:47;32.10;38.20
23669;DHT22;12011;47.422;15.018;2023-07-29T09:59:23;32.30;38.20
23669;DHT22;12011;47.422;15.018;2023-07-29T10:01:55;31.90;36.20
23669;DHT22;12011;47.422;15.018;2023-07-29T10:04:26;32.00;37.90
23669;DHT22;12011;47.422;15.018;2023-07-29T10:06:58;31.80;37.90
23669;DHT22;12011;47.422;15.018;2023-07-29T10:09:31;31.00;38.90
23669;DHT22;12011;47.422;15.018;2023-07-29T10:12:02;30.30;40.90
23669;DHT22;12011;47.422;15.018;2023-07-29T10:14:38;29.90;44.30
23669;DHT22;12011;47.422;15.018;2023-07-29T10:17:08;29.10;48.00
23669;DHT22;12011;47.422;15.018;2023-07-29T10:19:39;28.80;48.60
23669;DHT22;12011;47.422;15.018;2023-07-29T10:22:13;28.50;48.50
23669;DHT22;12011;47.422;15.018;2023-07-29T10:24:49;28.30;49.80
23669;DHT22;12011;47.422;15.018;2023-07-29T10:27:19;28.50;53.80
23669;DHT22;12011;47.422;15.018;2023-07-29T10:29:55;30.00;48.70
23669;DHT22;12011;47.422;15.018;2023-07-29T10:32:25;30.30;44.70
23669;DHT22;12011;47.422;15.018;2023-07-29T10:34:55;30.90;44.60
23669;DHT22;12011;47.422;15.018;2023-07-29T10:37:25;31.10;41.60
23669;DHT22;12011;47.422;15.018;2023-07-29T10:39:55;31.40;43.20
23669;DHT22;12011;47.422;15.018;2023-07-29T10:42:25;32.10;40.50
23669;DHT22;12011;47.422;15.018;2023-07-29T10:44:57;31.50;40.30
23669;DHT22;12011;47.422;15.018;2023-07-29T10:47:28;30.30;41.30
23669;DHT22;12011;47.422;15.018;2023-07-29T10:50:02;31.50;43.90
23669;DHT22;12011;47.422;15.018;2023-07-29T10:52:50;32.50;46.70
23669;DHT22;12011;47.422;15.018;2023-07-29T10:55:28;33.50;44.40
23669;DHT22;12011;47.422;15.018;2023-07-29T10:58:13;33.70;40.90
23669;DHT22;12011;47.422;15.018;2023-07-29T11:00:46;33.40;38.70
23669;DHT22;12011;47.422;15.018;2023-07-29T11:03:16;33.30;38.40
23669;DHT22;12011;47.422;15.018;2023-07-29T11:05:50;33.40;42.90
23669;DHT22;12011;47.422;15.018;2023-07-29T11:08:23;32.70;37.30
23669;DHT22;12011;47.422;15.018;2023-07-29T11:11:02;31.80;38.30
23669;DHT22;12011;47.422;15.018;2023-07-29T11:13:34;30.80;38.90
23669;DHT22;12011;47.422;15.018;2023-07-29T11:16:10;30.40;47.40
23669;DHT22;12011;47.422;15.018;2023-07-29T11:18:48;30.40;46.00
23669;DHT22;12011;47.422;15.018;2023-07-29T11:21:18;29.90;43.60
23669;DHT22;12011;47.422;15.018;2023-07-29T11:23:48;29.60;45.20
23669;DHT22;12011;47.422;15.018;2023-07-29T11:26:20;29.50;45.30
23669;DHT22;12011;47.422;15.018;2023-07-29T11:28:49;29.00;47.40
23669;DHT22;12011;47.422;15.018;2023-07-29T11:31:21;28.80;46.30
23669;DHT22;12011;47.422;15.018;2023-07-29T11:33:51;28.40;47.40
23669;DHT22;12011;47.422;15.018;2023-07-29T11:36:20;28.20;44.60
23669;DHT22;12011;47.422;15.018;2023-07-29T11:38:50;28.20;47.00
23669;DHT22;12011;47.422;15.018;2023-07-29T11:41:20;27.80;46.70
23669;DHT22;12011;47.422;15.018;2023-07-29T11:43:51;27.60;44.00
23669;DHT22;12011;47.422;15.018;2023-07-29T11:46:25;27.80;44.80
23669;DHT22;12011;47.422;15.018;2023-07-29T11:48:55;27.80;52.80
23669;DHT22;12011;47.422;15.018;2023-07-29T11:51:25;27.60;64.20
23669;DHT22;12011;47.422;15.018;2023-07-29T11:53:58;27.00;73.80
23669;DHT22;12011;47.422;15.018;2023-07-29T11:56:35;26.10;70.50
23669;DHT22;12011;47.422;15.018;2023-07-29T11:59:05;25.30;84.90
23669;DHT22;12011;47.422;15.018;2023-07-29T12:01:38;24.10;80.70
23669;DHT22;12011;47.422;15.018;2023-07-29T12:04:10;23.60;88.30
23669;DHT22;12011;47.422;15.018;2023-07-29T12:06:40;23.50;84.10
23669;DHT22;12011;47.422;15.018;2023-07-29T12:09:10;23.80;90.30
23669;DHT22;12011;47.422;15.018;2023-07-29T12:11:40;24.20;87.10
23669;DHT22;12011;47.422;15.018;2023-07-29T12:14:10;24.30;81.10
23669;DHT22;12011;47.422;15.018;2023-07-29T12:16:49;24.80;82.50
23669;DHT22;12011;47.422;15.018;2023-07-29T12:19:20;25.30;72.10
23669;DHT22;12011;47.422;15.018;2023-07-29T12:21:51;25.40;74.60
23669;DHT22;12011;47.422;15.018;2023-07-29T12:24:22;25.60;82.00
23669;DHT22;12011;47.422;15.018;2023-07-29T12:26:52;24.80;73.60
23669;DHT22;12011;47.422;15.018;2023-07-29T12:29:22;24.60;73.00
23669;DHT22;12011;47.422;15.018;2023-07-29T12:32:01;25.50;77.30
23669;DHT22;12011;47.422;15.018;2023-07-29T12:34:33;26.00;72.90
23669;DHT22;12011;47.422;15.018;2023-07-29T12:37:07;26.30;59.90
23669;DHT22;12011;47.422;15.018;2023-07-29T12:39:44;26.40;62.30
23669;DHT22;12011;47.422;15.018;2023-07-29T12:42:16;26.60;56.50
23669;DHT22;12011;47.422;15.018;2023-07-29T12:44:46;27.10;69.10
23669;DHT22;12011;47.422;15.018;2023-07-29T12:47:18;27.60;57.80
23669;DHT22;12011;47.422;15.018;2023-07-29T12:49:47;27.60;57.50
23669;DHT22;12011;47.422;15.018;2023-07-29T12:52:17;27.40;49.50
23669;DHT22;12011;47.422;15.018;2023-07-29T12:54:46;27.70;58.60
23669;DHT22;12011;47.422;15.018;2023-07-29T12:57:16;27.70;56.50
23669;DHT22;12011;47.422;15.018;2023-07-29T12:59:45;27.10;53.30
23669;DHT22;12011;47.422;15.018;2023-07-29T13:02:17;27.00;52.10
23669;DHT22;12011;47.422;15.018;2023-07-29T13:04:47;27.30;51.30
23669;DHT22;12011;47.422;15.018;2023-07-29T13:07:16;27.70;53.70
23669;DHT22;12011;47.422;15.018;2023-07-29T13:09:46;27.90;54.90
23669;DHT22;12011;47.422;15.018;2023-07-29T13:12:15;27.90;47.60
23669;DHT22;12011;47.422;15.018;2023-07-29T13:14:45;27.80;53.30
23669;DHT22;12011;47.422;15.018;2023-07-29T13:17:17;27.70;49.00
23669;DHT22;12011;47.422;15.018;2023-07-29T13:19:47;27.90;49.60
23669;DHT22;12011;47.422;15.018;2023-07-29T13:22:19;28.70;46.10
23669;DHT22;12011;47.422;15.018;2023-07-29T13:24:51;28.40;50.80
23669;DHT22;12011;47.422;15.018;2023-07-29T13:27:20;27.60;52.40
23669;DHT22;12011;47.422;15.018;2023-07-29T13:29:51;27.80;51.10
23669;DHT22;12011;47.422;15.018;2023-07-29T13:32:23;27.90;50.10
23669;DHT22;12011;47.422;15.018;2023-07-29T13:34:53;27.90;54.90
23669;DHT22;12011;47.422;15.018;2023-07-29T13:37:22;28.00;54.00
23669;DHT22;12011;47.422;15.018;2023-07-29T13:39:52;27.80;49.40
23669;DHT22;12011;47.422;15.018;2023-07-29T13:42:21;27.90;51.80
23669;DHT22;12011;47.422;15.018;2023-07-29T13:44:51;27.40;52.40
23669;DHT22;12011;47.422;15.018;2023-07-29T13:47:23;27.80;50.00
23669;DHT22;12011;47.422;15.018;2023-07-29T13:49:53;27.60;48.80
23669;DHT22;12011;47.422;15.018;2023-07-29T13:52:22;28.20;59.10
23669;DHT22;12011;47.422;15.018;2023-07-29T13:54:52;27.90;52.30
23669;DHT22;12011;47.422;15.018;2023-07-29T13:57:22;27.60;54.00
23669;DHT22;12011;47.422;15.018;2023-07-29T13:59:51;27.40;54.10
23669;DHT22;12011;47.422;15.018;2023-07-29T14:02:26;27.90;65.70
23669;DHT22;12011;47.422;15.018;2023-07-29T14:05:01;28.30;51.30
23669;DHT22;12011;47.422;15.018;2023-07-29T14:07:48;27.90;53.80
23669;DHT22;12011;47.422;15.018;2023-07-29T14:10:18;27.70;55.20
23669;DHT22;12011;47.422;15.018;2023-07-29T14:12:48;27.60;56.70
23669;DHT22;12011;47.422;15.018;2023-07-29T14:15:19;28.00;52.20
23669;DHT22;12011;47.422;15.018;2023-07-29T14:17:54;28.40;53.50
23669;DHT22;12011;47.422;15.018;2023-07-29T14:20:27;28.70;54.30
23669;DHT22;12011;47.422;15.018;2023-07-29T14:23:00;28.80;52.20
23669;DHT22;12011;47.422;15.018;2023-07-29T14:25:31;28.70;49.00
23669;DHT22;12011;47.422;15.018;2023-07-29T14:28:05;28.70;52.20
23669;DHT22;12011;47.422;15.018;2023-07-29T14:30:34;28.80;53.60
23669;DHT22;12011;47.422;15.018;2023-07-29T14:36:16;28.50;53.50
23669;DHT22;12011;47.422;15.018;2023-07-29T14:38:47;28.50;54.70
23669;DHT22;12011;47.422;15.018;2023-07-29T14:41:21;28.00;52.40
23669;DHT22;12011;47.422;15.018;2023-07-29T14:43:51;27.90;53.60
23669;DHT22;12011;47.422;15.018;2023-07-29T14:46:21;28.00;55.60
23669;DHT22;12011;47.422;15.018;2023-07-29T14:48:57;27.90;53.90
23669;DHT22;12011;47.422;15.018;2023-07-29T14:51:34;28.00;51.50
23669;DHT22;12011;47.422;15.018;2023-07-29T14:54:11;28.30;49.20
23669;DHT22;12011;47.422;15.018;2023-07-29T14:56:43;28.60;51.50
23669;DHT22;12011;47.422;15.018;2023-07-29T14:59:16;28.70;50.30
23669;DHT22;12011;47.422;15.018;2023-07-29T15:01:51;28.80;49.50
23669;DHT22;12011;47.422;15.018;2023-07-29T15:04:25;28.40;50.10
23669;DHT22;12011;47.422;15.018;2023-07-29T15:06:55;28.30;48.80
23669;DHT22;12011;47.422;15.018;2023-07-29T15:09:24;28.20;52.00
23669;DHT22;12011;47.422;15.018;2023-07-29T15:11:54;28.20;49.90
23669;DHT22;12011;47.422;15.018;2023-07-29T15:14:24;28.30;51.70
23669;DHT22;12011;47.422;15.018;2023-07-29T15:16:53;28.00;50.60
23669;DHT22;12011;47.422;15.018;2023-07-29T15:19:25;28.00;51.10
23669;DHT22;12011;47.422;15.018;2023-07-29T15:21:55;27.80;49.40
23669;DHT22;12011;47.422;15.018;2023-07-29T15:24:24;28.10;51.40
23669;DHT22;12011;47.422;15.018;2023-07-29T15:26:54;28.30;48.90
23669;DHT22;12011;47.422;15.018;2023-07-29T15:29:24;27.90;46.40
23669;DHT22;12011;47.422;15.018;2023-07-29T15:31:53;27.50;50.70
23669;DHT22;12011;47.422;15.018;2023-07-29T15:34:25;27.20;49.30
23669;DHT22;12011;47.422;15.018;2023-07-29T15:36:59;27.20;52.40
23669;DHT22;12011;47.422;15.018;2023-07-29T15:39:30;27.00;54.40
23669;DHT22;12011;47.422;15.018;2023-07-29T15:42:00;26.90;53.80
23669;DHT22;12011;47.422;15.018;2023-07-29T15:44:29;26.80;56.40
23669;DHT22;12011;47.422;15.018;2023-07-29T15:46:59;26.50;60.30
23669;DHT22;12011;47.422;15.018;2023-07-29T15:49:31;26.30;58.50